Time,TemperatureF,DewpointF,PressureIn,WindDirection,WindDirectionDegrees,WindSpeedMPH,WindSpeedGustMPH,Humidity,HourlyPrecipIn,Conditions,Clouds,dailyrainin,SoftwareType,DateUTC
2013-04-29 00:01:00,54.0,29.0,17.72,WNW,298,0.0,0.0,38,0.00,,---,0.00,VWS V13.01,2013-04-29 05:01:00,
2013-04-29 00:06:00,54.3,29.3,17.72,WNW,298,0.0,0.0,38,0.00,,---,0.00,VWS V13.01,2013-04-29 05:06:00,
2013-04-29 00:11:00,54.1,29.1,17.72,WNW,298,0.0,0.0,38,0.00,,---,0.00,VWS V13.01,2013-04-29 05:11:00,
2013-04-29 00:16:00,53.6,28.6,17.72,WNW,298,0.0,0.0,38,0.00,,---,0.00,VWS V13.01,2013-04-29 05:16:00,
2013-04-29 00:21:00,53.1,28.1,17.72,WNW,298,0.0,0.0,38,0.00,,---,0.00,VWS V13.01,2013-04-29 05:21:00,
2013-04-29 00:26:00,52.3,27.5,17.72,WNW,298,0.0,0.0,38,0.00,,---,0.00,VWS V13.01,2013-04-29 05:26:00,
2013-04-29 00:31:00,51.6,27.5,17.72,WNW,298,0.0,0.0,39,0.00,,---,0.00,VWS V13.01,2013-04-29 05:31:00,
2013-04-29 00:36:00,51.4,28.5,17.72,WNW,298,0.0,0.0,41,0.00,,---,0.00,VWS V13.01,2013-04-29 05:36:00,
2013-04-29 00:41:00,51.8,30.0,17.72,WNW,298,0.0,0.0,43,0.00,,---,0.00,VWS V13.01,2013-04-29 05:41:00,
2013-04-29 00:46:00,51.8,30.0,17.72,WNW,298,0.0,0.0,43,0.00,,---,0.00,VWS V13.01,2013-04-29 05:46:00,
2013-04-29 00:51:00,52.0,30.8,17.72,WNW,298,0.0,0.0,44,0.00,,---,0.00,VWS V13.01,2013-04-29 05:51:00,
2013-04-29 00:56:00,52.2,32.0,17.72,WNW,298,0.0,0.0,46,0.00,,---,0.00,VWS V13.01,2013-04-29 05:56:00,
2013-04-29 01:01:00,52.3,32.2,17.72,WNW,298,0.0,0.0,46,0.00,,---,0.00,VWS V13.01,2013-04-29 06:01:00,
2013-04-29 01:06:00,52.2,32.0,17.72,WNW,298,0.0,0.0,46,0.00,,---,0.00,VWS V13.01,2013-04-29 06:06:00,
2013-04-29 01:11:00,51.6,31.5,17.72,WNW,298,0.0,0.0,46,0.00,,---,0.00,VWS V13.01,2013-04-29 06:11:00,
2013-04-29 01:16:00,51.3,31.2,17.72,WNW,298,0.0,0.0,46,0.00,,---,0.00,VWS V13.01,2013-04-29 06:16:00,
2013-04-29 01:21:00,50.9,31.4,17.72,WNW,298,0.0,0.0,47,0.00,,---,0.00,VWS V13.01,2013-04-29 06:21:00,
2013-04-29 01:26:00,50.5,31.1,17.72,WNW,298,0.0,0.0,47,0.00,,---,0.00,VWS V13.01,2013-04-29 06:26:00,
2013-04-29 01:31:00,50.2,30.8,17.72,WNW,298,0.0,0.0,47,0.00,,---,0.00,VWS V13.01,2013-04-29 06:31:00,
2013-04-29 01:36:00,49.8,31.4,17.72,WNW,298,0.0,0.0,49,0.00,,---,0.00,VWS V13.01,2013-04-29 06:36:00,
2013-04-29 01:41:00,49.5,31.6,17.72,WNW,298,0.0,0.0,50,0.00,,---,0.00,VWS V13.01,2013-04-29 06:41:00,
2013-04-29 01:46:00,49.5,32.1,17.72,WNW,298,0.0,0.0,51,0.00,,---,0.00,VWS V13.01,2013-04-29 06:46:00,
2013-04-29 01:51:00,49.3,32.4,17.72,WNW,298,0.0,0.0,52,0.00,,---,0.00,VWS V13.01,2013-04-29 06:51:00,
2013-04-29 01:56:00,49.1,32.7,17.72,WNW,298,0.0,0.0,53,0.00,,---,0.00,VWS V13.01,2013-04-29 06:56:00,
2013-04-29 02:01:00,48.9,32.6,17.72,WNW,298,0.0,0.0,53,0.00,,---,0.00,VWS V13.01,2013-04-29 07:01:00,
2013-04-29 02:06:00,48.6,32.2,17.72,WNW,298,0.0,0.0,53,0.00,,---,0.00,VWS V13.01,2013-04-29 07:06:00,
2013-04-29 02:11:00,48.4,33.0,17.72,WNW,298,0.0,0.0,55,0.00,,---,0.00,VWS V13.01,2013-04-29 07:11:00,
2013-04-29 02:16:00,48.6,33.6,17.72,WNW,298,0.0,0.0,56,0.00,,---,0.00,VWS V13.01,2013-04-29 07:16:00,
2013-04-29 02:21:00,48.6,33.6,17.72,WNW,298,0.0,0.0,56,0.00,,---,0.00,VWS V13.01,2013-04-29 07:21:00,
2013-04-29 02:26:00,48.7,34.2,17.72,WNW,298,0.0,0.0,57,0.00,,---,0.00,VWS V13.01,2013-04-29 07:26:00,
2013-04-29 02:31:00,48.7,34.6,17.72,WNW,298,0.0,0.0,58,0.00,,---,0.00,VWS V13.01,2013-04-29 07:31:00,
2013-04-29 02:36:00,48.7,34.6,17.72,WNW,299,0.0,0.0,58,0.00,,---,0.00,VWS V13.01,2013-04-29 07:36:00,
2013-04-29 02:41:00,48.4,34.3,17.72,WNW,299,0.0,0.0,58,0.00,,---,0.00,VWS V13.01,2013-04-29 07:41:00,
2013-04-29 02:46:00,48.4,35.2,17.72,WNW,299,0.0,0.0,60,0.00,,---,0.00,VWS V13.01,2013-04-29 07:46:00,
2013-04-29 02:51:00,48.6,36.2,17.72,North,0,0.0,3.6,62,0.00,,---,0.00,VWS V13.01,2013-04-29 07:51:00,
2013-04-29 02:56:00,48.6,36.5,17.72,NNW,335,3.6,3.6,63,0.00,,---,0.00,VWS V13.01,2013-04-29 07:56:00,
2013-04-29 03:01:00,48.6,36.5,17.72,NNW,343,0.0,0.0,63,0.00,,---,0.00,VWS V13.01,2013-04-29 08:01:00,
2013-04-29 03:06:00,48.6,36.5,17.72,NNW,339,0.0,0.0,63,0.00,,---,0.00,VWS V13.01,2013-04-29 08:06:00,
2013-04-29 03:11:00,48.2,36.2,17.72,NNW,341,0.0,0.0,63,0.00,,---,0.00,VWS V13.01,2013-04-29 08:11:00,
2013-04-29 03:16:00,48.0,36.4,17.72,NNW,344,0.0,0.0,64,0.00,,---,0.00,VWS V13.01,2013-04-29 08:16:00,
2013-04-29 03:21:00,47.8,36.3,17.72,NNW,344,0.0,0.0,64,0.00,,---,0.00,VWS V13.01,2013-04-29 08:21:00,
2013-04-29 03:26:00,47.8,36.3,17.72,NNW,345,0.0,0.0,64,0.00,,---,0.00,VWS V13.01,2013-04-29 08:26:00,
2013-04-29 03:31:00,47.8,36.3,17.72,NNW,345,0.0,0.0,64,0.00,,---,0.00,VWS V13.01,2013-04-29 08:31:00,
2013-04-29 03:36:00,47.8,36.3,17.72,NNW,345,0.0,0.0,64,0.00,,---,0.00,VWS V13.01,2013-04-29 08:36:00,
2013-04-29 03:41:00,47.5,36.3,17.72,NNW,345,0.0,0.0,65,0.00,,---,0.00,VWS V13.01,2013-04-29 08:41:00,
2013-04-29 03:46:00,47.5,36.3,17.72,NNW,345,0.0,0.0,65,0.00,,---,0.00,VWS V13.01,2013-04-29 08:46:00,
2013-04-29 03:51:00,47.5,36.7,17.72,NNW,345,0.0,0.0,66,0.00,,---,0.00,VWS V13.01,2013-04-29 08:51:00,
2013-04-29 03:56:00,47.3,36.5,17.72,NNW,345,0.0,0.0,66,0.00,,---,0.00,VWS V13.01,2013-04-29 08:56:00,
2013-04-29 04:01:00,47.3,36.5,17.72,NNW,345,0.0,0.0,66,0.00,,---,0.00,VWS V13.01,2013-04-29 09:01:00,
2013-04-29 04:06:00,47.3,36.5,17.72,NNW,345,0.0,0.0,66,0.00,,---,0.00,VWS V13.01,2013-04-29 09:06:00,
2013-04-29 04:11:00,47.3,36.5,17.72,NNW,345,0.0,0.0,66,0.00,,---,0.00,VWS V13.01,2013-04-29 09:11:00,
2013-04-29 04:16:00,47.3,36.5,17.72,NNW,345,0.0,0.0,66,0.00,,---,0.00,VWS V13.01,2013-04-29 09:16:00,
2013-04-29 04:21:00,47.3,36.5,17.72,NNW,345,0.0,0.0,66,0.00,,---,0.00,VWS V13.01,2013-04-29 09:21:00,
2013-04-29 04:26:00,47.3,36.5,17.72,NNW,345,0.0,0.0,66,0.00,,---,0.00,VWS V13.01,2013-04-29 09:26:00,
2013-04-29 04:31:00,48.2,38.5,17.72,NNW,346,0.0,3.1,69,0.00,,---,0.00,VWS V13.01,2013-04-29 09:31:00,
2013-04-29 04:36:00,48.2,38.5,17.72,North,349,0.0,0.0,69,0.00,,---,0.00,VWS V13.01,2013-04-29 09:36:00,
2013-04-29 04:41:00,48.2,38.5,17.72,North,0,0.0,0.0,69,0.00,,---,0.00,VWS V13.01,2013-04-29 09:41:00,
2013-04-29 04:46:00,48.2,38.5,17.72,North,353,2.7,2.7,69,0.00,,---,0.00,VWS V13.01,2013-04-29 09:46:00,
2013-04-29 04:51:00,47.8,36.3,17.72,North,350,0.0,0.0,64,0.00,,---,0.00,VWS V13.01,2013-04-29 09:51:00,
2013-04-29 04:56:00,47.8,36.3,17.72,NW,325,0.0,0.0,64,0.00,,---,0.00,VWS V13.01,2013-04-29 09:56:00,
2013-04-29 05:01:00,47.8,36.3,17.72,NNW,329,4.9,4.9,64,0.00,,---,0.00,VWS V13.01,2013-04-29 10:01:00,
2013-04-29 05:06:00,47.8,36.3,17.72,NNW,328,2.2,3.6,64,0.00,,---,0.00,VWS V13.01,2013-04-29 10:06:00,
2013-04-29 05:11:00,47.8,36.3,17.72,NNW,329,0.0,0.0,64,0.00,,---,0.00,VWS V13.01,2013-04-29 10:11:00,
2013-04-29 05:16:00,46.9,35.0,17.72,NNW,329,0.0,0.0,63,0.00,,---,0.00,VWS V13.01,2013-04-29 10:16:00,
2013-04-29 05:21:00,46.9,35.0,17.72,NNW,329,0.0,0.0,63,0.00,,---,0.00,VWS V13.01,2013-04-29 10:21:00,
2013-04-29 05:26:00,46.9,35.0,17.72,NNW,329,0.0,0.0,63,0.00,,---,0.00,VWS V13.01,2013-04-29 10:26:00,
2013-04-29 05:31:00,46.9,35.0,17.72,NNW,329,0.0,0.0,63,0.00,,---,0.00,VWS V13.01,2013-04-29 10:31:00,
2013-04-29 05:36:00,46.9,35.0,17.72,NNW,329,0.0,0.0,63,0.00,,---,0.00,VWS V13.01,2013-04-29 10:36:00,
2013-04-29 05:41:00,46.2,34.3,17.72,NNW,329,0.0,0.0,63,0.00,,---,0.00,VWS V13.01,2013-04-29 10:41:00,
2013-04-29 05:46:00,46.0,34.2,17.72,NNW,329,0.0,0.0,63,0.00,,---,0.00,VWS V13.01,2013-04-29 10:46:00,
2013-04-29 05:51:00,45.9,34.0,17.72,NNW,329,0.0,0.0,63,0.00,,---,0.00,VWS V13.01,2013-04-29 10:51:00,
2013-04-29 05:56:00,45.9,34.0,17.72,NNW,329,0.0,0.0,63,0.00,,---,0.00,VWS V13.01,2013-04-29 10:56:00,
2013-04-29 06:01:00,45.7,34.2,17.72,NNW,329,0.0,0.0,64,0.00,,---,0.00,VWS V13.01,2013-04-29 11:01:00,
2013-04-29 06:06:00,45.7,34.2,17.72,NNW,329,0.0,0.0,64,0.00,,---,0.00,VWS V13.01,2013-04-29 11:06:00,
2013-04-29 06:11:00,45.7,34.2,17.72,NNW,329,0.0,0.0,64,0.00,,---,0.00,VWS V13.01,2013-04-29 11:11:00,
2013-04-29 06:16:00,45.7,34.2,17.72,NNW,329,0.0,0.0,64,0.00,,---,0.00,VWS V13.01,2013-04-29 11:16:00,
2013-04-29 06:21:00,45.9,34.4,17.72,NNW,329,0.0,0.0,64,0.00,,---,0.00,VWS V13.01,2013-04-29 11:21:00,
2013-04-29 06:26:00,46.0,35.0,17.72,NNW,329,0.0,0.0,65,0.00,,---,0.00,VWS V13.01,2013-04-29 11:26:00,
2013-04-29 06:31:00,46.0,35.0,17.72,NNW,329,0.0,0.0,65,0.00,,---,0.00,VWS V13.01,2013-04-29 11:31:00,
2013-04-29 06:36:00,46.0,35.0,17.72,NNW,330,0.0,0.0,65,0.00,,---,0.00,VWS V13.01,2013-04-29 11:36:00,
2013-04-29 06:41:00,46.0,35.0,17.72,NNW,330,0.0,0.0,65,0.00,,---,0.00,VWS V13.01,2013-04-29 11:41:00,
2013-04-29 06:46:00,46.0,35.0,17.72,NNW,330,0.0,0.0,65,0.00,,---,0.00,VWS V13.01,2013-04-29 11:46:00,
2013-04-29 06:51:00,46.9,35.4,17.72,NNW,330,0.0,0.0,64,0.00,,---,0.00,VWS V13.01,2013-04-29 11:51:00,
2013-04-29 06:56:00,47.3,35.0,17.72,NNW,332,2.7,2.7,62,0.00,,---,0.00,VWS V13.01,2013-04-29 11:56:00,
2013-04-29 07:01:00,47.5,35.1,17.72,NNW,335,0.0,2.7,62,0.00,,---,0.00,VWS V13.01,2013-04-29 12:01:00,
2013-04-29 07:06:00,47.5,35.1,17.72,NNW,337,0.0,0.0,62,0.00,,---,0.00,VWS V13.01,2013-04-29 12:06:00,
2013-04-29 07:11:00,47.5,35.1,17.72,North,353,3.6,3.6,62,0.00,,---,0.00,VWS V13.01,2013-04-29 12:11:00,
2013-04-29 07:16:00,47.7,34.5,17.72,North,353,0.0,0.0,60,0.00,,---,0.00,VWS V13.01,2013-04-29 12:16:00,
2013-04-29 07:21:00,47.7,34.5,17.72,North,0,0.0,0.0,60,0.00,,---,0.00,VWS V13.01,2013-04-29 12:21:00,
2013-04-29 07:26:00,47.7,34.5,17.72,North,0,0.0,0.0,60,0.00,,---,0.00,VWS V13.01,2013-04-29 12:26:00,
2013-04-29 07:31:00,47.7,34.5,17.72,North,0,0.0,0.0,60,0.00,,---,0.00,VWS V13.01,2013-04-29 12:31:00,
2013-04-29 07:36:00,47.1,32.7,17.72,North,0,0.0,0.0,57,0.00,,---,0.00,VWS V13.01,2013-04-29 12:36:00,
2013-04-29 07:41:00,47.1,32.7,17.72,North,0,0.0,0.0,57,0.00,,---,0.00,VWS V13.01,2013-04-29 12:41:00,
2013-04-29 07:46:00,48.2,34.1,17.72,North,0,0.0,0.0,58,0.00,,---,0.00,VWS V13.01,2013-04-29 12:46:00,
2013-04-29 07:51:00,48.2,34.1,17.72,North,0,0.0,0.0,58,0.00,,---,0.00,VWS V13.01,2013-04-29 12:51:00,
2013-04-29 07:56:00,48.2,34.1,17.72,North,0,0.0,0.0,58,0.00,,---,0.00,VWS V13.01,2013-04-29 12:56:00,
2013-04-29 08:01:00,51.6,36.5,17.72,North,0,0.0,0.0,56,0.00,,---,0.00,VWS V13.01,2013-04-29 13:01:00,
2013-04-29 08:06:00,51.6,36.5,17.72,North,0,0.0,0.0,56,0.00,,---,0.00,VWS V13.01,2013-04-29 13:06:00,
2013-04-29 08:11:00,53.1,33.4,17.72,North,0,0.0,0.0,47,0.00,,---,0.00,VWS V13.01,2013-04-29 13:11:00,
2013-04-29 08:16:00,53.8,33.5,17.72,NNW,344,0.0,0.0,46,0.00,,---,0.00,VWS V13.01,2013-04-29 13:16:00,
2013-04-29 08:21:00,53.8,33.5,17.72,NNW,344,0.0,0.0,46,0.00,,---,0.00,VWS V13.01,2013-04-29 13:21:00,
2013-04-29 08:26:00,55.0,31.2,17.72,NNW,344,0.0,0.0,40,0.00,,---,0.00,VWS V13.01,2013-04-29 13:26:00,
2013-04-29 08:31:00,55.0,31.2,17.72,NNW,344,0.0,0.0,40,0.00,,---,0.00,VWS V13.01,2013-04-29 13:31:00,
2013-04-29 08:36:00,57.2,33.1,17.72,NNW,344,0.0,0.0,40,0.00,,---,0.00,VWS V13.01,2013-04-29 13:36:00,
2013-04-29 08:41:00,57.2,33.1,17.72,NNW,344,0.0,0.0,40,0.00,,---,0.00,VWS V13.01,2013-04-29 13:41:00,
2013-04-29 08:46:00,58.8,30.5,17.72,NNW,344,0.0,0.0,34,0.00,,---,0.00,VWS V13.01,2013-04-29 13:46:00,
2013-04-29 08:51:00,59.0,30.7,17.72,NNW,344,0.0,0.0,34,0.00,,---,0.00,VWS V13.01,2013-04-29 13:51:00,
2013-04-29 08:56:00,59.0,30.7,17.72,NNW,344,0.0,0.0,34,0.00,,---,0.00,VWS V13.01,2013-04-29 13:56:00,
2013-04-29 09:01:00,59.0,30.7,17.72,SE,133,4.0,5.8,34,0.00,,---,0.00,VWS V13.01,2013-04-29 14:01:00,
2013-04-29 09:06:00,59.0,30.7,17.72,SE,135,0.0,0.0,34,0.00,,---,0.00,VWS V13.01,2013-04-29 14:06:00,
2013-04-29 09:11:00,62.1,27.7,17.72,SE,135,0.0,0.0,27,0.00,,---,0.00,VWS V13.01,2013-04-29 14:11:00,
2013-04-29 09:17:00,62.8,27.4,17.72,ESE,106,3.6,3.6,26,0.00,,---,0.00,VWS V13.01,2013-04-29 14:17:00,
2013-04-29 09:22:00,62.8,27.4,17.72,ESE,102,3.1,3.1,26,0.00,,---,0.00,VWS V13.01,2013-04-29 14:22:00,
2013-04-29 09:27:00,62.8,27.4,17.72,ESE,102,3.1,3.1,26,0.00,,---,0.00,VWS V13.01,2013-04-29 14:27:00,
2013-04-29 09:32:00,62.8,27.4,17.72,ESE,102,0.0,0.0,26,0.00,,---,0.00,VWS V13.01,2013-04-29 14:32:00,
2013-04-29 09:37:00,62.8,27.4,17.72,ESE,123,5.4,5.4,26,0.00,,---,0.00,VWS V13.01,2013-04-29 14:37:00,
2013-04-29 09:42:00,62.8,27.4,17.72,ESE,111,6.3,6.3,26,0.00,,---,0.00,VWS V13.01,2013-04-29 14:42:00,
2013-04-29 09:47:00,62.8,27.4,17.72,ESE,110,5.4,5.4,26,0.00,,---,0.00,VWS V13.01,2013-04-29 14:47:00,
2013-04-29 09:52:00,62.8,27.4,17.72,ESE,104,4.0,4.0,26,0.00,,---,0.00,VWS V13.01,2013-04-29 14:52:00,
2013-04-29 09:57:00,68.0,28.9,17.72,East,89,4.9,4.9,23,0.00,,---,0.00,VWS V13.01,2013-04-29 14:57:00,
2013-04-29 10:02:00,68.7,28.4,17.72,East,89,4.0,4.0,22,0.00,,---,0.00,VWS V13.01,2013-04-29 15:02:00,
2013-04-29 10:07:00,68.7,28.4,17.72,East,92,2.2,2.2,22,0.00,,---,0.00,VWS V13.01,2013-04-29 15:07:00,
2013-04-29 10:12:00,70.5,29.9,17.72,East,85,2.7,2.7,22,0.00,,---,0.00,VWS V13.01,2013-04-29 15:12:00,
2013-04-29 10:17:00,70.5,29.9,17.72,East,91,4.0,4.0,22,0.00,,---,0.00,VWS V13.01,2013-04-29 15:17:00,
2013-04-29 10:22:00,72.5,27.9,17.72,ESE,115,4.0,4.0,19,0.00,,---,0.00,VWS V13.01,2013-04-29 15:22:00,
2013-04-29 10:27:00,72.5,27.9,17.72,East,90,0.0,2.7,19,0.00,,---,0.00,VWS V13.01,2013-04-29 15:27:00,
2013-04-29 10:32:00,73.6,27.5,17.72,East,88,0.0,0.0,18,0.00,,---,0.00,VWS V13.01,2013-04-29 15:32:00,
2013-04-29 10:37:00,73.6,27.5,17.72,South,170,2.7,2.7,18,0.00,,---,0.00,VWS V13.01,2013-04-29 15:37:00,
2013-04-29 10:42:00,74.1,25.1,17.72,ESE,112,3.6,3.6,16,0.00,,---,0.00,VWS V13.01,2013-04-29 15:42:00,
2013-04-29 10:47:00,75.7,29.3,17.72,WNW,295,3.6,3.6,18,0.00,,---,0.00,VWS V13.01,2013-04-29 15:47:00,
2013-04-29 10:52:00,77.7,26.4,17.72,West,278,3.1,3.1,15,0.00,,---,0.00,VWS V13.01,2013-04-29 15:52:00,
2013-04-29 10:57:00,78.1,26.7,17.72,SE,139,4.9,4.9,15,0.00,,---,0.00,VWS V13.01,2013-04-29 15:57:00,
2013-04-29 11:02:00,77.9,26.6,17.72,SE,139,4.9,4.9,15,0.00,,---,0.00,VWS V13.01,2013-04-29 16:02:00,
2013-04-29 11:07:00,78.3,26.9,17.72,SE,139,4.9,4.9,15,0.00,,---,0.00,VWS V13.01,2013-04-29 16:07:00,
2013-04-29 11:12:00,76.6,25.6,17.72,SE,139,4.9,4.9,15,0.00,,---,0.00,VWS V13.01,2013-04-29 16:12:00,
2013-04-29 11:17:00,76.6,25.6,17.72,SE,139,4.9,4.9,15,0.00,,---,0.00,VWS V13.01,2013-04-29 16:17:00,
2013-04-29 11:22:00,76.6,25.6,17.72,SE,139,4.9,4.9,15,0.00,,---,0.00,VWS V13.01,2013-04-29 16:22:00,
2013-04-29 11:27:00,77.0,25.9,17.72,SE,139,4.9,4.9,15,0.00,,---,0.00,VWS V13.01,2013-04-29 16:27:00,
2013-04-29 11:32:00,77.0,25.9,17.72,SE,139,4.9,4.9,15,0.00,,---,0.00,VWS V13.01,2013-04-29 16:32:00,
2013-04-29 11:37:00,77.9,26.6,17.72,SE,139,4.9,4.9,15,0.00,,---,0.00,VWS V13.01,2013-04-29 16:37:00,
2013-04-29 11:42:00,77.9,26.6,17.72,SE,139,4.9,4.9,15,0.00,,---,0.00,VWS V13.01,2013-04-29 16:42:00,
2013-04-29 11:47:00,77.4,26.1,17.72,SE,139,4.9,4.9,15,0.00,,---,0.00,VWS V13.01,2013-04-29 16:47:00,
2013-04-29 11:52:00,77.4,26.1,17.72,SE,139,4.9,4.9,15,0.00,,---,0.00,VWS V13.01,2013-04-29 16:52:00,
2013-04-29 11:57:00,77.4,26.1,17.72,SE,139,4.9,4.9,15,0.00,,---,0.00,VWS V13.01,2013-04-29 16:57:00,
2013-04-29 12:02:00,78.4,27.0,17.72,SE,139,4.9,4.9,15,0.00,,---,0.00,VWS V13.01,2013-04-29 17:02:00,
2013-04-29 12:07:00,79.0,27.4,17.72,SE,139,4.9,4.9,15,0.00,,---,0.00,VWS V13.01,2013-04-29 17:07:00,
2013-04-29 12:12:00,80.1,28.3,17.72,SE,139,4.9,4.9,15,0.00,,---,0.00,VWS V13.01,2013-04-29 17:12:00,
2013-04-29 12:17:00,80.1,28.3,17.72,SE,139,4.9,4.9,15,0.00,,---,0.00,VWS V13.01,2013-04-29 17:17:00,
2013-04-29 12:22:00,81.7,27.9,17.72,SE,139,4.9,4.9,14,0.00,,---,0.00,VWS V13.01,2013-04-29 17:22:00,
2013-04-29 12:27:00,80.4,28.6,17.72,SE,139,4.9,4.9,15,0.00,,---,0.00,VWS V13.01,2013-04-29 17:27:00,
2013-04-29 12:32:00,80.4,28.6,17.72,SE,139,4.9,4.9,15,0.00,,---,0.00,VWS V13.01,2013-04-29 17:32:00,
2013-04-29 12:37:00,79.5,27.9,17.72,SE,139,4.9,4.9,15,0.00,,---,0.00,VWS V13.01,2013-04-29 17:37:00,
2013-04-29 12:42:00,79.5,27.9,17.72,SE,139,4.9,4.9,15,0.00,,---,0.00,VWS V13.01,2013-04-29 17:42:00,
2013-04-29 12:47:00,79.3,27.7,17.72,SE,139,4.9,4.9,15,0.00,,---,0.00,VWS V13.01,2013-04-29 17:47:00,
2013-04-29 12:52:00,79.3,27.7,17.72,SE,139,4.9,4.9,15,0.00,,---,0.00,VWS V13.01,2013-04-29 17:52:00,
2013-04-29 12:57:00,79.2,27.6,17.72,SE,139,4.9,4.9,15,0.00,,---,0.00,VWS V13.01,2013-04-29 17:57:00,
2013-04-29 13:02:00,83.3,29.2,17.72,SW,235,6.3,6.3,14,0.00,,---,0.00,VWS V13.01,2013-04-29 18:02:00,
2013-04-29 13:07:00,84.0,29.8,17.72,SW,235,6.3,6.3,14,0.00,,---,0.00,VWS V13.01,2013-04-29 18:07:00,
2013-04-29 13:12:00,86.9,30.2,17.72,SW,235,6.3,6.3,13,0.00,,---,0.00,VWS V13.01,2013-04-29 18:12:00,
2013-04-29 13:17:00,86.9,30.2,17.72,SW,235,6.3,6.3,13,0.00,,---,0.00,VWS V13.01,2013-04-29 18:17:00,
2013-04-29 13:22:00,88.0,31.0,17.72,SW,235,6.3,6.3,13,0.00,,---,0.00,VWS V13.01,2013-04-29 18:22:00,
2013-04-29 13:27:00,88.0,31.0,17.72,SW,235,6.3,6.3,13,0.00,,---,0.00,VWS V13.01,2013-04-29 18:27:00,
2013-04-29 13:32:00,84.7,28.5,17.72,SW,235,6.3,6.3,13,0.00,,---,0.00,VWS V13.01,2013-04-29 18:32:00,
2013-04-29 13:37:00,82.0,28.2,17.72,SW,235,6.3,6.3,14,0.00,,---,0.00,VWS V13.01,2013-04-29 18:37:00,
2013-04-29 13:42:00,82.0,28.2,17.72,SW,235,6.3,6.3,14,0.00,,---,0.00,VWS V13.01,2013-04-29 18:42:00,
2013-04-29 13:47:00,80.4,28.6,17.72,SW,235,6.3,6.3,15,0.00,,---,0.00,VWS V13.01,2013-04-29 18:47:00,
2013-04-29 13:52:00,79.2,27.6,17.72,SW,235,6.3,6.3,15,0.00,,---,0.00,VWS V13.01,2013-04-29 18:52:00,
2013-04-29 13:57:00,78.4,27.0,17.72,SW,235,6.3,6.3,15,0.00,,---,0.00,VWS V13.01,2013-04-29 18:57:00,
2013-04-29 14:02:00,78.6,27.1,17.72,SW,235,6.3,6.3,15,0.00,,---,0.00,VWS V13.01,2013-04-29 19:02:00,
2013-04-29 14:07:00,78.6,27.1,17.72,SW,235,6.3,6.3,15,0.00,,---,0.00,VWS V13.01,2013-04-29 19:07:00,
2013-04-29 14:12:00,82.4,28.5,17.72,SW,235,6.3,6.3,14,0.00,,---,0.00,VWS V13.01,2013-04-29 19:12:00,
2013-04-29 14:19:00,83.5,29.3,17.72,SW,235,6.3,6.3,14,0.00,,---,0.00,VWS V13.01,2013-04-29 19:19:00,
2013-04-29 14:24:00,83.5,29.3,17.72,SW,235,6.3,6.3,14,0.00,,---,0.00,VWS V13.01,2013-04-29 19:24:00,
2013-04-29 14:29:00,84.2,28.1,17.72,SW,235,6.3,6.3,13,0.00,,---,0.00,VWS V13.01,2013-04-29 19:29:00,
2013-04-29 14:34:00,84.2,28.1,17.72,SW,235,6.3,6.3,13,0.00,,---,0.00,VWS V13.01,2013-04-29 19:34:00,
2013-04-29 14:39:00,84.9,28.6,17.72,SW,235,6.3,6.3,13,0.00,,---,0.00,VWS V13.01,2013-04-29 19:39:00,
2013-04-29 14:44:00,84.9,28.6,17.72,SW,235,6.3,6.3,13,0.00,,---,0.00,VWS V13.01,2013-04-29 19:44:00,
2013-04-29 14:49:00,83.5,29.3,17.72,SW,235,6.3,6.3,14,0.00,,---,0.00,VWS V13.01,2013-04-29 19:49:00,
2013-04-29 14:54:00,82.2,28.3,17.72,SW,235,6.3,6.3,14,0.00,,---,0.00,VWS V13.01,2013-04-29 19:54:00,
2013-04-29 14:59:00,82.4,28.5,17.72,SW,235,6.3,6.3,14,0.00,,---,0.00,VWS V13.01,2013-04-29 19:59:00,
2013-04-29 15:04:00,83.8,29.6,17.72,SSW,198,0.0,0.0,14,0.00,,---,0.00,VWS V13.01,2013-04-29 20:04:00,
2013-04-29 15:09:00,83.8,29.6,17.72,SSW,198,0.0,0.0,14,0.00,,---,0.00,VWS V13.01,2013-04-29 20:09:00,
2013-04-29 15:14:00,84.9,28.6,17.72,NW,325,4.0,4.0,13,0.00,,---,0.00,VWS V13.01,2013-04-29 20:14:00,
2013-04-29 15:19:00,84.9,28.6,17.72,NW,325,4.0,4.0,13,0.00,,---,0.00,VWS V13.01,2013-04-29 20:19:00,
2013-04-29 15:24:00,87.6,30.8,17.72,WNW,297,3.6,3.6,13,0.00,,---,0.00,VWS V13.01,2013-04-29 20:24:00,
2013-04-29 15:29:00,86.0,29.5,17.72,SE,125,4.9,4.9,13,0.00,,---,0.00,VWS V13.01,2013-04-29 20:29:00,
2013-04-29 15:34:00,83.1,29.0,17.72,SE,127,5.8,5.8,14,0.00,,---,0.00,VWS V13.01,2013-04-29 20:34:00,
2013-04-29 15:40:00,82.0,28.2,17.72,SSE,164,5.4,5.4,14,0.00,,---,0.00,VWS V13.01,2013-04-29 20:40:00,
2013-04-29 15:57:00,84.4,28.2,17.72,ESE,105,6.3,6.3,13,0.00,,---,0.00,VWS V13.01,2013-04-29 20:57:00,
2013-04-29 16:02:00,83.5,29.3,17.72,ESE,105,6.3,6.3,14,0.00,,---,0.00,VWS V13.01,2013-04-29 21:02:00,
2013-04-29 16:07:00,83.1,29.0,17.72,East,98,8.1,8.1,14,0.00,,---,0.00,VWS V13.01,2013-04-29 21:07:00,
2013-04-29 16:23:00,84.9,28.6,17.72,ESE,122,8.1,8.1,13,0.00,,---,0.00,VWS V13.01,2013-04-29 21:23:00,
2013-04-29 16:28:00,84.9,28.6,17.72,ESE,113,2.7,2.7,13,0.00,,---,0.00,VWS V13.01,2013-04-29 21:28:00,
2013-04-29 16:33:00,85.8,29.4,17.72,NNW,331,3.1,3.1,13,0.00,,---,0.00,VWS V13.01,2013-04-29 21:33:00,
2013-04-29 16:38:00,87.6,30.8,17.72,NNW,331,3.1,3.1,13,0.00,,---,0.00,VWS V13.01,2013-04-29 21:38:00,
2013-04-29 16:43:00,87.1,30.3,17.72,ESE,109,8.1,8.1,13,0.00,,---,0.00,VWS V13.01,2013-04-29 21:43:00,
2013-04-29 16:50:00,83.8,29.6,17.72,ESE,113,6.3,6.3,14,0.00,,---,0.00,VWS V13.01,2013-04-29 21:50:00,
2013-04-29 16:55:00,84.2,28.1,17.72,East,87,5.8,5.8,13,0.00,,---,0.00,VWS V13.01,2013-04-29 21:55:00,
2013-04-29 17:00:00,85.3,28.9,17.72,NE,36,0.0,0.0,13,0.00,,---,0.00,VWS V13.01,2013-04-29 22:00:00,
2013-04-29 17:05:00,88.2,31.2,17.72,NE,36,0.0,0.0,13,0.00,,---,0.00,VWS V13.01,2013-04-29 22:05:00,
2013-04-29 17:10:00,88.2,31.2,17.72,ENE,57,4.0,4.0,13,0.00,,---,0.00,VWS V13.01,2013-04-29 22:10:00,
2013-04-29 17:15:00,88.2,31.2,17.72,North,2,4.9,4.9,13,0.00,,---,0.00,VWS V13.01,2013-04-29 22:15:00,
2013-04-29 17:20:00,88.7,31.6,17.72,SE,125,3.6,3.6,13,0.00,,---,0.00,VWS V13.01,2013-04-29 22:20:00,
2013-04-29 17:25:00,87.8,30.9,17.72,ESE,120,5.4,5.4,13,0.00,,---,0.00,VWS V13.01,2013-04-29 22:25:00,
2013-04-29 17:30:00,87.6,30.8,17.72,ESE,107,6.3,6.3,13,0.00,,---,0.00,VWS V13.01,2013-04-29 22:30:00,
2013-04-29 17:35:00,87.6,30.8,17.72,East,81,4.0,4.0,13,0.00,,---,0.00,VWS V13.01,2013-04-29 22:35:00,
2013-04-29 17:40:00,85.8,29.4,17.72,East,81,4.0,4.0,13,0.00,,---,0.00,VWS V13.01,2013-04-29 22:40:00,
2013-04-29 17:45:00,83.3,29.2,17.72,SE,141,4.9,4.9,14,0.00,,---,0.00,VWS V13.01,2013-04-29 22:45:00,
2013-04-29 17:50:00,82.8,28.8,17.72,East,92,6.3,6.3,14,0.00,,---,0.00,VWS V13.01,2013-04-29 22:50:00,
2013-04-29 17:55:00,81.7,27.9,17.72,ESE,116,6.3,6.7,14,0.00,,---,0.00,VWS V13.01,2013-04-29 22:55:00,
2013-04-29 18:00:00,81.7,27.9,17.72,SE,131,4.5,6.3,14,0.00,,---,0.00,VWS V13.01,2013-04-29 23:00:00,
2013-04-29 18:05:00,81.7,27.9,17.72,SW,226,2.7,2.7,14,0.00,,---,0.00,VWS V13.01,2013-04-29 23:05:00,
2013-04-29 18:10:00,81.7,27.9,17.72,South,181,5.4,5.4,14,0.00,,---,0.00,VWS V13.01,2013-04-29 23:10:00,
2013-04-29 18:15:00,81.7,27.9,17.72,South,181,5.4,5.4,14,0.00,,---,0.00,VWS V13.01,2013-04-29 23:15:00,
2013-04-29 18:20:00,81.7,27.9,17.72,WSW,240,3.6,3.6,14,0.00,,---,0.00,VWS V13.01,2013-04-29 23:20:00,
2013-04-29 18:25:00,82.2,28.3,17.72,WSW,257,3.1,3.1,14,0.00,,---,0.00,VWS V13.01,2013-04-29 23:25:00,
2013-04-29 18:30:00,82.2,28.3,17.72,SW,233,2.7,2.7,14,0.00,,---,0.00,VWS V13.01,2013-04-29 23:30:00,
2013-04-29 18:35:00,82.2,28.3,17.72,ESE,108,4.0,4.0,14,0.00,,---,0.00,VWS V13.01,2013-04-29 23:35:00,
2013-04-29 18:40:00,82.2,28.3,17.72,ESE,106,0.0,0.0,14,0.00,,---,0.00,VWS V13.01,2013-04-29 23:40:00,
2013-04-29 18:45:00,82.2,28.3,17.72,NNE,25,3.1,3.1,14,0.00,,---,0.00,VWS V13.01,2013-04-29 23:45:00,
2013-04-29 18:50:00,82.2,28.3,17.72,North,357,3.1,3.1,14,0.00,,---,0.00,VWS V13.01,2013-04-29 23:50:00,
2013-04-29 18:55:00,82.2,28.3,17.72,NNW,341,2.7,2.7,14,0.00,,---,0.00,VWS V13.01,2013-04-29 23:55:00,
2013-04-29 19:00:00,82.2,28.3,17.72,NW,308,4.0,4.0,14,0.00,,---,0.00,VWS V13.01,2013-04-30 00:00:00,
2013-04-29 19:05:00,82.2,28.3,17.72,NW,323,5.8,7.2,14,0.00,,---,0.00,VWS V13.01,2013-04-30 00:05:00,
2013-04-29 19:10:00,82.2,28.3,17.72,NNW,341,5.4,5.4,14,0.00,,---,0.00,VWS V13.01,2013-04-30 00:10:00,
2013-04-29 19:15:00,82.2,28.3,17.72,NNW,330,3.1,3.1,14,0.00,,---,0.00,VWS V13.01,2013-04-30 00:15:00,
2013-04-29 19:20:00,76.3,25.3,17.72,NW,321,4.9,4.9,15,0.00,,---,0.00,VWS V13.01,2013-04-30 00:20:00,
2013-04-29 19:25:00,76.1,25.1,17.72,NW,325,8.3,8.3,15,0.00,,---,0.00,VWS V13.01,2013-04-30 00:25:00,
2013-04-29 19:30:00,76.1,25.1,17.72,NW,322,5.8,5.8,15,0.00,,---,0.00,VWS V13.01,2013-04-30 00:30:00,
2013-04-29 19:35:00,76.1,25.1,17.72,NW,318,6.3,7.6,15,0.00,,---,0.00,VWS V13.01,2013-04-30 00:35:00,
2013-04-29 19:40:00,76.1,25.1,17.72,NW,315,6.3,6.3,15,0.00,,---,0.00,VWS V13.01,2013-04-30 00:40:00,
2013-04-29 19:45:00,76.1,25.1,17.72,NW,326,8.1,8.1,15,0.00,,---,0.00,VWS V13.01,2013-04-30 00:45:00,
2013-04-29 19:50:00,76.1,25.1,17.72,NW,306,8.1,8.1,15,0.00,,---,0.00,VWS V13.01,2013-04-30 00:50:00,
2013-04-29 19:55:00,76.3,25.3,17.72,NW,319,7.6,7.6,15,0.00,,---,0.00,VWS V13.01,2013-04-30 00:55:00,
2013-04-29 20:00:00,76.3,25.3,17.72,WNW,295,5.4,5.4,15,0.00,,---,0.00,VWS V13.01,2013-04-30 01:00:00,
2013-04-29 20:05:00,76.3,25.3,17.72,West,270,7.6,7.6,15,0.00,,---,0.00,VWS V13.01,2013-04-30 01:05:00,
2013-04-29 20:10:00,76.3,25.3,17.72,WSW,246,5.8,5.8,15,0.00,,---,0.00,VWS V13.01,2013-04-30 01:10:00,
2013-04-29 20:15:00,76.3,25.3,17.72,WSW,246,5.8,5.8,15,0.00,,---,0.00,VWS V13.01,2013-04-30 01:15:00,
2013-04-29 20:20:00,73.6,24.7,17.72,West,264,5.8,5.8,16,0.00,,---,0.00,VWS V13.01,2013-04-30 01:20:00,
2013-04-29 20:25:00,73.6,24.7,17.72,West,270,5.4,5.4,16,0.00,,---,0.00,VWS V13.01,2013-04-30 01:25:00,
2013-04-29 20:30:00,72.3,23.6,17.72,West,259,5.8,5.8,16,0.00,,---,0.00,VWS V13.01,2013-04-30 01:30:00,
2013-04-29 20:35:00,72.3,23.6,17.72,West,259,5.8,5.8,16,0.00,,---,0.00,VWS V13.01,2013-04-30 01:35:00,
2013-04-29 20:40:00,72.3,23.6,17.72,West,266,5.4,5.4,16,0.00,,---,0.00,VWS V13.01,2013-04-30 01:40:00,
2013-04-29 20:45:00,72.3,23.6,17.72,WNW,288,2.7,2.7,16,0.00,,---,0.00,VWS V13.01,2013-04-30 01:45:00,
2013-04-29 20:50:00,72.3,23.6,17.72,WNW,289,3.1,3.1,16,0.00,,---,0.00,VWS V13.01,2013-04-30 01:50:00,
2013-04-29 20:55:00,72.3,23.6,17.72,WNW,289,0.0,0.0,16,0.00,,---,0.00,VWS V13.01,2013-04-30 01:55:00,
2013-04-29 21:00:00,72.3,23.6,17.72,NW,304,0.0,0.0,16,0.00,,---,0.00,VWS V13.01,2013-04-30 02:00:00,
2013-04-29 21:05:00,72.3,23.6,17.72,NNW,335,0.0,0.0,16,0.00,,---,0.00,VWS V13.01,2013-04-30 02:05:00,
2013-04-29 21:10:00,67.8,21.5,17.72,NNW,335,0.0,0.0,17,0.00,,---,0.00,VWS V13.01,2013-04-30 02:10:00,
2013-04-29 21:15:00,67.8,21.5,17.72,NNW,335,0.0,0.0,17,0.00,,---,0.00,VWS V13.01,2013-04-30 02:15:00,
2013-04-29 21:20:00,67.3,21.0,17.72,NNW,335,0.0,0.0,17,0.00,,---,0.00,VWS V13.01,2013-04-30 02:20:00,
2013-04-29 21:25:00,67.3,21.0,17.72,North,0,2.7,2.7,17,0.00,,---,0.00,VWS V13.01,2013-04-30 02:25:00,
2013-04-29 21:30:00,67.3,21.0,17.72,North,0,0.0,0.0,17,0.00,,---,0.00,VWS V13.01,2013-04-30 02:30:00,
2013-04-29 21:35:00,67.3,21.0,17.72,North,357,0.0,0.0,17,0.00,,---,0.00,VWS V13.01,2013-04-30 02:35:00,
2013-04-29 21:40:00,67.3,21.0,17.72,North,357,0.0,0.0,17,0.00,,---,0.00,VWS V13.01,2013-04-30 02:40:00,
2013-04-29 21:45:00,64.9,20.4,17.72,North,357,0.0,0.0,18,0.00,,---,0.00,VWS V13.01,2013-04-30 02:45:00,
2013-04-29 21:50:00,64.9,20.4,17.72,North,357,0.0,0.0,18,0.00,,---,0.00,VWS V13.01,2013-04-30 02:50:00,
2013-04-29 21:56:00,64.9,20.4,17.72,North,357,0.0,0.0,18,0.00,,---,0.00,VWS V13.01,2013-04-30 02:56:00,
2013-04-29 22:01:00,64.9,20.4,17.72,North,357,0.0,0.0,18,0.00,,---,0.00,VWS V13.01,2013-04-30 03:01:00,
2013-04-29 22:06:00,64.9,20.4,17.72,North,357,0.0,0.0,18,0.00,,---,0.00,VWS V13.01,2013-04-30 03:06:00,
2013-04-29 22:11:00,64.9,20.4,17.72,North,357,0.0,0.0,18,0.00,,---,0.00,VWS V13.01,2013-04-30 03:11:00,
2013-04-29 22:16:00,64.2,19.9,17.72,North,357,0.0,0.0,18,0.00,,---,0.00,VWS V13.01,2013-04-30 03:16:00,
2013-04-29 22:21:00,64.2,19.9,17.72,North,357,0.0,0.0,18,0.00,,---,0.00,VWS V13.01,2013-04-30 03:21:00,
2013-04-29 22:26:00,64.2,19.9,17.72,North,357,0.0,0.0,18,0.00,,---,0.00,VWS V13.01,2013-04-30 03:26:00,
2013-04-29 22:31:00,64.2,19.9,17.72,North,357,0.0,0.0,18,0.00,,---,0.00,VWS V13.01,2013-04-30 03:31:00,
2013-04-29 22:36:00,64.2,19.9,17.72,West,262,0.0,0.0,18,0.00,,---,0.00,VWS V13.01,2013-04-30 03:36:00,
2013-04-29 22:41:00,64.2,19.9,17.72,West,262,0.0,0.0,18,0.00,,---,0.00,VWS V13.01,2013-04-30 03:41:00,
2013-04-29 22:46:00,64.2,19.9,17.72,SW,234,0.0,0.0,18,0.00,,---,0.00,VWS V13.01,2013-04-30 03:46:00,
2013-04-29 22:51:00,64.2,19.9,17.72,West,279,0.0,0.0,18,0.00,,---,0.00,VWS V13.01,2013-04-30 03:51:00,
2013-04-29 22:56:00,64.2,19.9,17.72,SW,234,2.7,2.7,18,0.00,,---,0.00,VWS V13.01,2013-04-30 03:56:00,
2013-04-29 23:01:00,61.9,19.2,17.72,SW,234,2.7,2.7,19,0.00,,---,0.00,VWS V13.01,2013-04-30 04:01:00,
2013-04-29 23:02:00,61.9,19.2,17.72,SW,236,0.0,0.0,19,0.00,,---,0.00,VWS V13.01,2013-04-30 04:02:00,
2013-04-29 23:07:00,61.9,19.2,17.72,ENE,57,3.6,3.6,19,0.00,,---,0.00,VWS V13.01,2013-04-30 04:07:00,
2013-04-29 23:12:00,61.9,19.2,17.72,NW,320,0.0,0.0,19,0.00,,---,0.00,VWS V13.01,2013-04-30 04:12:00,
2013-04-29 23:17:00,61.9,19.2,17.72,NNW,335,0.0,0.0,19,0.00,,---,0.00,VWS V13.01,2013-04-30 04:17:00,
2013-04-29 23:22:00,61.9,19.2,17.72,NE,39,4.9,4.9,19,0.00,,---,0.00,VWS V13.01,2013-04-30 04:22:00,
2013-04-29 23:27:00,61.9,19.2,17.72,NNW,338,3.6,3.6,19,0.00,,---,0.00,VWS V13.01,2013-04-30 04:27:00,
2013-04-29 23:32:00,61.9,19.2,17.72,NNW,331,4.0,4.0,19,0.00,,---,0.00,VWS V13.01,2013-04-30 04:32:00,
2013-04-29 23:37:00,62.6,18.5,17.72,NW,304,6.3,6.7,18,0.00,,---,0.00,VWS V13.01,2013-04-30 04:37:00,
2013-04-29 23:42:00,63.0,18.8,17.72,NW,305,4.9,4.9,18,0.00,,---,0.00,VWS V13.01,2013-04-30 04:42:00,
2013-04-29 23:47:00,63.0,18.8,17.72,WNW,303,5.8,5.8,18,0.00,,---,0.00,VWS V13.01,2013-04-30 04:47:00,
2013-04-29 23:52:00,63.0,18.8,17.72,WNW,283,3.6,7.2,18,0.00,,---,0.00,VWS V13.01,2013-04-30 04:52:00,
2013-04-29 23:57:00,63.0,18.8,17.72,WNW,286,4.0,4.0,18,0.00,,---,0.00,VWS V13.01,2013-04-30 04:57:00,